ADDS METAR Data INFO
IDs: Format: Raw Decoded Include TAF

Data at: 0928 UTC 17 Oct 2017

KHYX 170914Z AUTO 20010KT 10SM CLR 06/03 A3016 RMK AO2
KHYX 170853Z AUTO 20009KT 10SM CLR 06/03 A3016 RMK AO2
KHYX 170834Z AUTO 20009KT 10SM CLR 06/03 A3017 RMK AO2
KHYX 170814Z AUTO 20008KT 10SM CLR 07/03 A3017 RMK AO2
KHYX 170753Z AUTO 20008KT 10SM CLR 06/03 A3017 RMK AO2
KHYX 170734Z AUTO 19008KT 10SM CLR 06/03 A3017 RMK AO2
KHYX 170714Z AUTO 18006KT 10SM CLR 06/03 A3018 RMK AO2
KHYX 170653Z AUTO 18006KT 10SM CLR 05/03 A3018 RMK AO2
KHYX 170634Z AUTO 18005KT 10SM CLR 05/03 A3018 RMK AO2
KHYX 170614Z AUTO 18006KT 10SM CLR 05/03 A3018 RMK AO2
KHYX 170553Z AUTO 18005KT 10SM CLR 05/03 A3019 RMK AO2
KHYX 170534Z AUTO 16004KT 10SM CLR 05/03 A3019 RMK AO2
KHYX 170514Z AUTO 17005KT 10SM CLR 05/03 A3019 RMK AO2
KHYX 170453Z AUTO 17006KT 10SM CLR 06/03 A3019 RMK AO2
KHYX 170434Z AUTO 17006KT 10SM CLR 06/03 A3019 RMK AO2
KHYX 170414Z AUTO 18006KT 10SM CLR 05/03 A3020 RMK AO2
KHYX 170353Z AUTO 19005KT 10SM CLR 06/03 A3021 RMK AO2
KHYX 170334Z AUTO 19005KT 10SM CLR 06/03 A3021 RMK AO2
KHYX 170314Z AUTO 19004KT 10SM CLR 06/03 A3021 RMK AO2
KHYX 170253Z AUTO 19005KT 10SM CLR 07/04 A3021 RMK AO2
KHYX 170234Z AUTO 19006KT 10SM CLR 07/04 A3021 RMK AO2
KHYX 170213Z AUTO 19006KT 10SM CLR 08/04 A3021 RMK AO2
KHYX 170154Z AUTO 20006KT 10SM CLR 08/05 A3021 RMK AO2
KHYX 170134Z AUTO 20006KT 10SM CLR 08/04 A3021 RMK AO2
KHYX 170113Z AUTO 18007KT 10SM CLR 08/04 A3021 RMK AO2
KHYX 170054Z AUTO 18007KT 10SM CLR 08/04 A3022 RMK AO2
KHYX 170034Z AUTO 18007KT 10SM CLR 08/03 A3022 RMK AO2
KHYX 170013Z AUTO 19006KT 10SM CLR 08/03 A3022 RMK AO2
KHYX 162354Z AUTO 19005KT 10SM CLR 08/03 A3023 RMK AO2
KHYX 162334Z AUTO 18005KT 10SM SCT047 SCT050 09/04 A3022 RMK AO2
KHYX 162313Z AUTO 17004KT 10SM SCT050 BKN055 09/04 A3022 RMK AO2
KHYX 162254Z AUTO 17004KT 10SM SCT050 10/03 A3022 RMK AO2
KHYX 162234Z AUTO 18003KT 10SM SCT050 11/03 A3022 RMK AO2
KHYX 162213Z AUTO 20005KT 10SM CLR 12/03 A3022 RMK AO2
KHYX 162154Z AUTO 21004KT 10SM CLR 12/03 A3022 RMK AO2
KHYX 162134Z AUTO 25006KT 10SM CLR 12/03 A3022 RMK AO2
KHYX 162113Z AUTO 22007KT 10SM SCT075 13/02 A3022 RMK AO2
KHYX 162054Z AUTO 24008KT 10SM OVC075 13/02 A3023 RMK AO2
KHYX 162034Z AUTO 19005KT 10SM OVC075 12/02 A3023 RMK AO2
KHYX 162013Z AUTO 20005KT 10SM OVC075 12/02 A3023 RMK AO2
KHYX 161954Z AUTO 23007KT 10SM BKN075 12/02 A3024 RMK AO2
KHYX 161934Z AUTO 22006KT 10SM BKN075 12/02 A3024 RMK AO2
KHYX 161913Z AUTO 20006KT 10SM CLR 12/02 A3024 RMK AO2
KHYX 161854Z AUTO 22006KT 10SM CLR 12/02 A3024 RMK AO2
KHYX 161834Z AUTO 20006KT 10SM CLR 12/01 A3025 RMK AO2
KHYX 161813Z AUTO 20006G14KT 10SM CLR 11/02 A3026 RMK AO2
KHYX 161754Z AUTO 16003KT 10SM CLR 11/01 A3027 RMK AO2
KHYX 161734Z AUTO 00000KT 10SM CLR 11/01 A3027 RMK AO2
KHYX 161713Z AUTO 00000KT 10SM CLR 11/00 A3028 RMK AO2
KHYX 161654Z AUTO 00000KT 10SM CLR 10/00 A3029 RMK AO2
KHYX 161634Z AUTO 00000KT 10SM CLR 10/00 A3029 RMK AO2
KHYX 161613Z AUTO 20003KT 10SM SCT075 SCT090 10/01 A3029 RMK AO2
KHYX 161554Z AUTO 21005KT 10SM SCT075 10/01 A3030 RMK AO2
KHYX 161534Z AUTO 27004KT 10SM CLR 09/01 A3030 RMK AO2
KHYX 161513Z AUTO 00000KT 10SM CLR 09/01 A3030 RMK AO2
KHYX 161454Z AUTO 00000KT 10SM CLR 08/01 A3029 RMK AO2
KHYX 161434Z AUTO 00000KT 10SM CLR 08/02 A3029 RMK AO2
KHYX 161413Z AUTO 00000KT 10SM CLR 07/02 A3029 RMK AO2
KHYX 161354Z AUTO 31003KT 10SM CLR 07/02 A3029 RMK AO2
KHYX 161333Z AUTO 29005KT 10SM SCT100 06/02 A3029 RMK AO2
KHYX 161314Z AUTO 28004KT 10SM BKN110 06/02 A3029 RMK AO2
KHYX 161254Z AUTO 30004KT 10SM OVC100 05/02 A3028 RMK AO2
KHYX 161233Z AUTO 28004KT 10SM BKN090 05/02 A3028 RMK AO2
KHYX 161214Z AUTO 28005KT 10SM SCT090 03/01 A3028 RMK AO2
KHYX 161154Z AUTO 30004KT 10SM BKN090 BKN110 04/01 A3026 RMK AO2
KHYX 161133Z AUTO 29005KT 10SM BKN090 OVC110 05/02 A3026 RMK AO2
KHYX 161114Z AUTO 00000KT 10SM SCT080 OVC090 05/02 A3025 RMK AO2
KHYX 161054Z AUTO 29004KT 10SM BKN080 OVC090 05/02 A3025 RMK AO2
KHYX 161033Z AUTO 29005KT 10SM OVC080 05/02 A3025 RMK AO2
KHYX 161014Z AUTO 29005KT 10SM OVC080 05/02 A3024 RMK AO2
KHYX 160954Z AUTO 31005KT 10SM OVC085 05/02 A3024 RMK AO2
KHYX 160933Z AUTO 30006KT 10SM OVC085 05/01 A3023 RMK AO2
KHYX 160914Z AUTO 29005KT 10SM BKN085 04/01 A3022 RMK AO2
KHYX 160854Z AUTO 29005KT 10SM BKN085 04/02 A3022 RMK AO2
KHYX 160833Z AUTO 30005KT 10SM SCT100 04/01 A3021 RMK AO2
KHYX 160814Z AUTO 32005KT 10SM BKN110 04/02 A3021 RMK AO2
KHYX 160754Z AUTO 30005KT 10SM BKN110 05/02 A3020 RMK AO2
KHYX 160733Z AUTO 28005KT 10SM OVC110 04/03 A3020 RMK AO2
KHYX 160714Z AUTO 28005KT 10SM OVC110 04/03 A3019 RMK AO2
KHYX 160654Z AUTO 28005KT 10SM BKN110 04/03 A3019 RMK AO2
KHYX 160633Z AUTO 27003KT 10SM BKN110 04/03 A3019 RMK AO2
KHYX 160614Z AUTO 31004KT 10SM CLR 03/02 A3018 RMK AO2
KHYX 160554Z AUTO 31004KT 10SM CLR 04/03 A3018 RMK AO2
KHYX 160533Z AUTO 31005KT 10SM CLR 05/03 A3017 RMK AO2
KHYX 160514Z AUTO 31005KT 10SM CLR 05/03 A3017 RMK AO2
KHYX 160454Z AUTO 32006KT 10SM CLR 05/03 A3017 RMK AO2
KHYX 160433Z AUTO 31005KT 10SM CLR 05/04 A3017 RMK AO2
KHYX 160414Z AUTO 30005KT 10SM SCT027 05/03 A3016 RMK AO2
KHYX 160354Z AUTO 00000KT 10SM SCT027 SCT037 06/04 A3015 RMK AO2
KHYX 160333Z AUTO 31003KT 10SM SCT024 SCT031 BKN037 06/04 A3014 RMK AO2
KHYX 160314Z AUTO 31005KT 10SM SCT035 06/04 A3014 RMK AO2
KHYX 160254Z AUTO 33005KT 10SM CLR 07/04 A3014 RMK AO2
KHYX 160233Z AUTO 32009KT 10SM CLR 07/04 A3013 RMK AO2
KHYX 160214Z AUTO 32009KT 10SM CLR 07/04 A3013 RMK AO2
KHYX 160154Z AUTO 31008KT 10SM CLR 07/04 A3012 RMK AO2
KHYX 160133Z AUTO 30008KT 10SM SCT044 07/04 A3011 RMK AO2
KHYX 160114Z AUTO 31009KT 10SM BKN044 08/05 A3011 RMK AO2
KHYX 160054Z AUTO 31007KT 10SM SCT032 SCT038 08/05 A3010 RMK AO2
KHYX 160033Z AUTO 31004KT 10SM SCT034 SCT044 08/05 A3009 RMK AO2
KHYX 160014Z AUTO 33005KT 10SM BKN034 BKN044 09/04 A3007 RMK AO2
KHYX 152354Z AUTO 32008KT 10SM SCT036 BKN042 BKN048 09/04 A3006 RMK AO2
KHYX 152333Z AUTO 32010KT 10SM SCT042 08/04 A3005 RMK AO2
KHYX 152314Z AUTO 32011G18KT 10SM SCT044 09/03 A3003 RMK AO2
KHYX 152254Z AUTO 33012KT 10SM BKN042 10/03 A3002 RMK AO2
KHYX 152233Z AUTO 33017G25KT 10SM SCT038 BKN043 10/03 A3001 RMK AO2
KHYX 152214Z AUTO 34014G17KT 10SM BKN038 OVC043 10/04 A2999 RMK AO2
KHYX 152154Z AUTO 30021G33KT 10SM SCT038 BKN045 11/04 A2996 RMK AO2
KHYX 152133Z AUTO 31017G27KT 10SM BKN039 BKN045 11/05 A2993 RMK AO2